sensor_id;sensor_type;location;lat;lon;timestamp;pressure;altitude;pressure_sealevel;temperature;humidity
41945;BME280;63122;52.424;13.458;2023-08-17T00:01:24;101423.38;;;23.83;100.00
41945;BME280;63122;52.424;13.458;2023-08-17T00:03:20;101416.19;;;23.77;100.00
41945;BME280;63122;52.424;13.458;2023-08-17T00:05:15;101406.81;;;23.61;100.00
41945;BME280;63122;52.424;13.458;2023-08-17T00:07:10;101412.44;;;23.60;100.00
41945;BME280;63122;52.424;13.458;2023-08-17T00:09:09;101402.88;;;23.64;100.00
41945;BME280;63122;52.424;13.458;2023-08-17T00:11:08;101399.88;;;23.72;100.00
41945;BME280;63122;52.424;13.458;2023-08-17T00:13:03;101398.69;;;23.68;100.00
41945;BME280;63122;52.424;13.458;2023-08-17T00:14:56;101399.50;;;23.68;100.00
41945;BME280;63122;52.424;13.458;2023-08-17T00:16:52;101398.44;;;23.69;100.00
41945;BME280;63122;52.424;13.458;2023-08-17T00:18:47;101397.19;;;23.72;100.00
41945;BME280;63122;52.424;13.458;2023-08-17T00:20:42;101392.19;;;23.76;100.00
41945;BME280;63122;52.424;13.458;2023-08-17T00:22:38;101385.97;;;23.75;100.00
41945;BME280;63122;52.424;13.458;2023-08-17T00:26:28;101379.31;;;23.78;100.00
41945;BME280;63122;52.424;13.458;2023-08-17T00:28:24;101369.88;;;23.68;100.00
41945;BME280;63122;52.424;13.458;2023-08-17T00:30:19;101372.72;;;23.55;100.00
41945;BME280;63122;52.424;13.458;2023-08-17T00:32:11;101365.41;;;23.37;100.00
41945;BME280;63122;52.424;13.458;2023-08-17T00:34:08;101367.56;;;23.28;100.00
41945;BME280;63122;52.424;13.458;2023-08-17T00:36:04;101366.75;;;23.21;100.00
41945;BME280;63122;52.424;13.458;2023-08-17T00:37:59;101369.81;;;23.24;100.00
41945;BME280;63122;52.424;13.458;2023-08-17T00:39:52;101368.38;;;23.28;100.00
41945;BME280;63122;52.424;13.458;2023-08-17T00:41:50;101363.78;;;23.36;100.00
41945;BME280;63122;52.424;13.458;2023-08-17T00:43:45;101364.97;;;23.40;100.00
41945;BME280;63122;52.424;13.458;2023-08-17T00:45:38;101365.78;;;23.40;100.00
41945;BME280;63122;52.424;13.458;2023-08-17T00:47:33;101369.75;;;23.38;100.00
41945;BME280;63122;52.424;13.458;2023-08-17T00:49:26;101370.34;;;23.40;100.00
41945;BME280;63122;52.424;13.458;2023-08-17T00:51:22;101366.38;;;23.42;100.00
41945;BME280;63122;52.424;13.458;2023-08-17T00:53:16;101367.22;;;23.43;100.00
41945;BME280;63122;52.424;13.458;2023-08-17T00:55:12;101371.16;;;23.40;100.00
41945;BME280;63122;52.424;13.458;2023-08-17T00:57:08;101371.06;;;23.28;100.00
41945;BME280;63122;52.424;13.458;2023-08-17T00:59:04;101366.66;;;23.09;100.00
41945;BME280;63122;52.424;13.458;2023-08-17T01:00:59;101376.59;;;23.01;100.00
41945;BME280;63122;52.424;13.458;2023-08-17T01:02:55;101380.13;;;23.02;100.00
41945;BME280;63122;52.424;13.458;2023-08-17T01:04:48;101376.44;;;22.96;100.00
41945;BME280;63122;52.424;13.458;2023-08-17T01:06:43;101383.03;;;23.00;100.00
41945;BME280;63122;52.424;13.458;2023-08-17T01:08:36;101377.00;;;23.05;100.00
41945;BME280;63122;52.424;13.458;2023-08-17T01:10:39;101378.81;;;23.11;100.00
41945;BME280;63122;52.424;13.458;2023-08-17T01:12:44;101373.66;;;23.10;100.00
41945;BME280;63122;52.424;13.458;2023-08-17T01:14:49;101375.56;;;23.02;100.00
41945;BME280;63122;52.424;13.458;2023-08-17T01:16:50;101378.94;;;22.98;100.00
41945;BME280;63122;52.424;13.458;2023-08-17T01:18:48;101372.19;;;22.82;100.00
41945;BME280;63122;52.424;13.458;2023-08-17T01:20:43;101366.22;;;22.80;100.00
41945;BME280;63122;52.424;13.458;2023-08-17T01:22:40;101366.22;;;22.80;100.00
41945;BME280;63122;52.424;13.458;2023-08-17T01:24:38;101366.22;;;22.80;100.00
41945;BME280;63122;52.424;13.458;2023-08-17T01:26:34;101366.00;;;22.81;100.00
41945;BME280;63122;52.424;13.458;2023-08-17T01:28:26;101358.53;;;22.83;100.00
41945;BME280;63122;52.424;13.458;2023-08-17T01:30:22;101358.34;;;22.78;100.00
41945;BME280;63122;52.424;13.458;2023-08-17T01:32:24;101369.13;;;22.78;100.00
41945;BME280;63122;52.424;13.458;2023-08-17T01:34:24;101368.09;;;22.72;100.00
41945;BME280;63122;52.424;13.458;2023-08-17T01:36:24;101365.91;;;22.63;100.00
41945;BME280;63122;52.424;13.458;2023-08-17T01:38:18;101359.28;;;22.58;100.00
41945;BME280;63122;52.424;13.458;2023-08-17T01:40:18;101360.75;;;22.54;100.00
41945;BME280;63122;52.424;13.458;2023-08-17T01:42:15;101356.44;;;22.53;100.00
41945;BME280;63122;52.424;13.458;2023-08-17T01:44:08;101351.28;;;22.52;100.00
41945;BME280;63122;52.424;13.458;2023-08-17T01:46:04;101357.91;;;22.49;100.00
41945;BME280;63122;52.424;13.458;2023-08-17T01:47:59;101354.59;;;22.47;100.00
41945;BME280;63122;52.424;13.458;2023-08-17T01:49:52;101360.16;;;22.46;100.00
41945;BME280;63122;52.424;13.458;2023-08-17T01:51:52;101359.34;;;22.45;100.00
41945;BME280;63122;52.424;13.458;2023-08-17T01:53:47;101364.91;;;22.50;100.00
41945;BME280;63122;52.424;13.458;2023-08-17T01:55:42;101363.06;;;22.44;100.00
41945;BME280;63122;52.424;13.458;2023-08-17T01:57:37;101366.78;;;22.43;100.00
41945;BME280;63122;52.424;13.458;2023-08-17T01:59:33;101372.16;;;22.43;100.00
41945;BME280;63122;52.424;13.458;2023-08-17T02:01:25;101375.66;;;22.43;100.00
41945;BME280;63122;52.424;13.458;2023-08-17T02:03:21;101373.41;;;22.40;100.00
41945;BME280;63122;52.424;13.458;2023-08-17T02:05:13;101360.63;;;22.36;100.00
41945;BME280;63122;52.424;13.458;2023-08-17T02:07:08;101363.78;;;22.26;100.00
41945;BME280;63122;52.424;13.458;2023-08-17T02:09:04;101364.41;;;22.21;100.00
41945;BME280;63122;52.424;13.458;2023-08-17T02:11:02;101357.56;;;22.25;100.00
41945;BME280;63122;52.424;13.458;2023-08-17T02:12:57;101359.22;;;22.26;100.00
41945;BME280;63122;52.424;13.458;2023-08-17T02:15:04;101361.72;;;22.21;100.00
41945;BME280;63122;52.424;13.458;2023-08-17T02:17:02;101366.06;;;22.15;100.00
41945;BME280;63122;52.424;13.458;2023-08-17T02:18:55;101361.53;;;22.09;100.00
41945;BME280;63122;52.424;13.458;2023-08-17T02:20:50;101368.56;;;22.10;100.00
41945;BME280;63122;52.424;13.458;2023-08-17T02:22:45;101368.13;;;22.13;100.00
41945;BME280;63122;52.424;13.458;2023-08-17T02:24:41;101369.34;;;22.18;100.00
41945;BME280;63122;52.424;13.458;2023-08-17T02:26:38;101367.09;;;22.14;100.00
41945;BME280;63122;52.424;13.458;2023-08-17T02:28:34;101374.59;;;22.06;100.00
41945;BME280;63122;52.424;13.458;2023-08-17T02:30:26;101369.00;;;22.00;100.00
41945;BME280;63122;52.424;13.458;2023-08-17T02:32:22;101361.78;;;22.01;100.00
41945;BME280;63122;52.424;13.458;2023-08-17T02:34:17;101363.00;;;22.05;100.00
41945;BME280;63122;52.424;13.458;2023-08-17T02:36:12;101355.97;;;22.04;100.00
41945;BME280;63122;52.424;13.458;2023-08-17T02:38:08;101357.63;;;22.05;100.00
41945;BME280;63122;52.424;13.458;2023-08-17T02:40:04;101355.97;;;22.04;100.00
41945;BME280;63122;52.424;13.458;2023-08-17T02:42:01;101349.56;;;22.05;100.00
41945;BME280;63122;52.424;13.458;2023-08-17T02:43:57;101345.25;;;22.04;100.00
41945;BME280;63122;52.424;13.458;2023-08-17T02:45:52;101342.97;;;22.01;100.00
41945;BME280;63122;52.424;13.458;2023-08-17T02:47:47;101344.41;;;22.04;100.00
41945;BME280;63122;52.424;13.458;2023-08-17T02:49:43;101338.00;;;22.05;100.00
41945;BME280;63122;52.424;13.458;2023-08-17T02:51:35;101338.00;;;22.05;100.00
41945;BME280;63122;52.424;13.458;2023-08-17T02:53:30;101340.91;;;22.03;100.00
41945;BME280;63122;52.424;13.458;2023-08-17T02:55:26;101330.19;;;21.96;100.00
41945;BME280;63122;52.424;13.458;2023-08-17T02:57:23;101329.19;;;21.77;100.00
41945;BME280;63122;52.424;13.458;2023-08-17T02:59:19;101324.25;;;21.67;100.00
41945;BME280;63122;52.424;13.458;2023-08-17T03:01:14;101329.41;;;21.55;100.00
41945;BME280;63122;52.424;13.458;2023-08-17T03:03:09;101328.59;;;21.48;100.00
41945;BME280;63122;52.424;13.458;2023-08-17T03:05:05;101328.41;;;21.36;100.00
41945;BME280;63122;52.424;13.458;2023-08-17T03:06:58;101320.78;;;21.33;100.00
41945;BME280;63122;52.424;13.458;2023-08-17T03:08:53;101324.06;;;21.28;100.00
41945;BME280;63122;52.424;13.458;2023-08-17T03:10:49;101330.28;;;21.29;100.00
41945;BME280;63122;52.424;13.458;2023-08-17T03:12:46;101339.75;;;21.38;100.00
41945;BME280;63122;52.424;13.458;2023-08-17T03:14:42;101345.31;;;21.43;100.00
41945;BME280;63122;52.424;13.458;2023-08-17T03:16:37;101341.59;;;21.51;100.00
41945;BME280;63122;52.424;13.458;2023-08-17T03:18:32;101345.31;;;21.57;100.00
41945;BME280;63122;52.424;13.458;2023-08-17T03:20:28;101339.31;;;21.62;100.00
41945;BME280;63122;52.424;13.458;2023-08-17T03:22:23;101342.25;;;21.67;100.00
41945;BME280;63122;52.424;13.458;2023-08-17T03:24:15;101336.00;;;21.60;100.00
41945;BME280;63122;52.424;13.458;2023-08-17T03:26:11;101340.56;;;21.59;100.00
41945;BME280;63122;52.424;13.458;2023-08-17T03:28:06;101337.88;;;21.59;100.00
41945;BME280;63122;52.424;13.458;2023-08-17T03:30:01;101344.06;;;21.60;100.00
41945;BME280;63122;52.424;13.458;2023-08-17T03:31:57;101333.56;;;21.58;100.00
41945;BME280;63122;52.424;13.458;2023-08-17T03:33:52;101332.94;;;21.56;100.00
41945;BME280;63122;52.424;13.458;2023-08-17T03:35:47;101334.78;;;21.55;100.00
41945;BME280;63122;52.424;13.458;2023-08-17T03:37:42;101330.69;;;21.53;100.00
41945;BME280;63122;52.424;13.458;2023-08-17T03:39:35;101327.16;;;21.46;100.00
41945;BME280;63122;52.424;13.458;2023-08-17T03:41:30;101326.53;;;21.43;100.00
41945;BME280;63122;52.424;13.458;2023-08-17T03:43:25;101334.81;;;21.42;100.00
41945;BME280;63122;52.424;13.458;2023-08-17T03:45:21;101334.81;;;21.42;100.00
41945;BME280;63122;52.424;13.458;2023-08-17T03:47:16;101335.63;;;21.42;100.00
41945;BME280;63122;52.424;13.458;2023-08-17T03:49:09;101331.09;;;21.43;100.00
41945;BME280;63122;52.424;13.458;2023-08-17T03:51:04;101333.34;;;21.33;100.00
41945;BME280;63122;52.424;13.458;2023-08-17T03:53:00;101332.31;;;21.34;100.00
41945;BME280;63122;52.424;13.458;2023-08-17T03:54:55;101324.28;;;21.34;100.00
41945;BME280;63122;52.424;13.458;2023-08-17T03:56:51;101324.91;;;21.36;100.00
41945;BME280;63122;52.424;13.458;2023-08-17T03:58:49;101323.66;;;21.38;100.00
41945;BME280;63122;52.424;13.458;2023-08-17T04:00:49;101316.44;;;21.39;100.00
41945;BME280;63122;52.424;13.458;2023-08-17T04:02:42;101319.13;;;21.39;100.00
41945;BME280;63122;52.424;13.458;2023-08-17T04:04:37;101315.59;;;21.38;100.00
41945;BME280;63122;52.424;13.458;2023-08-17T04:06:34;101315.59;;;21.38;100.00
41945;BME280;63122;52.424;13.458;2023-08-17T04:08:31;101313.53;;;21.34;100.00
41945;BME280;63122;52.424;13.458;2023-08-17T04:10:27;101319.94;;;21.33;100.00
41945;BME280;63122;52.424;13.458;2023-08-17T04:12:23;101317.06;;;21.34;100.00
41945;BME280;63122;52.424;13.458;2023-08-17T04:14:18;101317.25;;;21.33;100.00
41945;BME280;63122;52.424;13.458;2023-08-17T04:16:13;101305.91;;;21.31;100.00
41945;BME280;63122;52.424;13.458;2023-08-17T04:18:06;101312.31;;;21.29;100.00
41945;BME280;63122;52.424;13.458;2023-08-17T04:20:02;101316.66;;;21.24;100.00
41945;BME280;63122;52.424;13.458;2023-08-17T04:21:57;101320.56;;;21.21;100.00
41945;BME280;63122;52.424;13.458;2023-08-17T04:23:53;101321.00;;;21.25;100.00
41945;BME280;63122;52.424;13.458;2023-08-17T04:25:48;101315.03;;;21.23;100.00
41945;BME280;63122;52.424;13.458;2023-08-17T04:27:43;101323.25;;;21.21;100.00
41945;BME280;63122;52.424;13.458;2023-08-17T04:29:42;101321.63;;;21.27;100.00
41945;BME280;63122;52.424;13.458;2023-08-17T04:31:37;101322.00;;;21.31;100.00
41945;BME280;63122;52.424;13.458;2023-08-17T04:33:32;101312.31;;;21.36;100.00
41945;BME280;63122;52.424;13.458;2023-08-17T04:35:28;101321.59;;;21.40;100.00
41945;BME280;63122;52.424;13.458;2023-08-17T04:37:23;101311.69;;;21.41;100.00
41945;BME280;63122;52.424;13.458;2023-08-17T04:39:19;101318.28;;;21.45;100.00
41945;BME280;63122;52.424;13.458;2023-08-17T04:41:14;101325.09;;;21.48;100.00
41945;BME280;63122;52.424;13.458;2023-08-17T04:43:07;101332.09;;;21.49;100.00
41945;BME280;63122;52.424;13.458;2023-08-17T04:45:06;101327.38;;;21.51;100.00
41945;BME280;63122;52.424;13.458;2023-08-17T04:46:59;101319.94;;;21.46;100.00
41945;BME280;63122;52.424;13.458;2023-08-17T04:48:54;101319.72;;;21.48;100.00
41945;BME280;63122;52.424;13.458;2023-08-17T04:50:52;101317.69;;;21.50;100.00
41945;BME280;63122;52.424;13.458;2023-08-17T04:52:45;101315.81;;;21.50;100.00
41945;BME280;63122;52.424;13.458;2023-08-17T04:54:40;101312.09;;;21.51;100.00
41945;BME280;63122;52.424;13.458;2023-08-17T04:56:35;101321.59;;;21.54;100.00
41945;BME280;63122;52.424;13.458;2023-08-17T04:58:28;101316.22;;;21.54;100.00
41945;BME280;63122;52.424;13.458;2023-08-17T05:00:26;101323.84;;;21.50;100.00
41945;BME280;63122;52.424;13.458;2023-08-17T05:02:23;101330.88;;;21.51;100.00
41945;BME280;63122;52.424;13.458;2023-08-17T05:04:18;101334.59;;;21.50;100.00
41945;BME280;63122;52.424;13.458;2023-08-17T05:06:13;101335.63;;;21.49;100.00
41945;BME280;63122;52.424;13.458;2023-08-17T05:08:09;101345.94;;;21.46;100.00
41945;BME280;63122;52.424;13.458;2023-08-17T05:10:05;101338.72;;;21.46;100.00
41945;BME280;63122;52.424;13.458;2023-08-17T05:12:00;101335.00;;;21.47;100.00
41945;BME280;63122;52.424;13.458;2023-08-17T05:13:56;101334.81;;;21.42;100.00
41945;BME280;63122;52.424;13.458;2023-08-17T05:15:51;101331.09;;;21.36;100.00
41945;BME280;63122;52.424;13.458;2023-08-17T05:17:46;101342.03;;;21.41;100.00
41945;BME280;63122;52.424;13.458;2023-08-17T05:19:41;101341.84;;;21.43;100.00
41945;BME280;63122;52.424;13.458;2023-08-17T05:21:34;101338.53;;;21.41;100.00
41945;BME280;63122;52.424;13.458;2023-08-17T05:23:30;101336.03;;;21.39;100.00
41945;BME280;63122;52.424;13.458;2023-08-17T05:25:25;101335.44;;;21.44;100.00
41945;BME280;63122;52.424;13.458;2023-08-17T05:27:21;101337.88;;;21.46;100.00
41945;BME280;63122;52.424;13.458;2023-08-17T05:29:17;101327.78;;;21.48;100.00
41945;BME280;63122;52.424;13.458;2023-08-17T05:31:14;101325.72;;;21.50;100.00
41945;BME280;63122;52.424;13.458;2023-08-17T05:33:07;101330.25;;;21.42;100.00
41945;BME280;63122;52.424;13.458;2023-08-17T05:35:03;101325.53;;;21.38;100.00
41945;BME280;63122;52.424;13.458;2023-08-17T05:36:56;101320.78;;;21.33;100.00
41945;BME280;63122;52.424;13.458;2023-08-17T05:38:54;101324.50;;;21.39;100.00
41945;BME280;63122;52.424;13.458;2023-08-17T05:40:54;101334.81;;;21.42;100.00
41945;BME280;63122;52.424;13.458;2023-08-17T05:42:47;101334.41;;;21.45;100.00
41945;BME280;63122;52.424;13.458;2023-08-17T05:44:43;101339.75;;;21.45;100.00
41945;BME280;63122;52.424;13.458;2023-08-17T05:46:40;101347.81;;;21.45;100.00
41945;BME280;63122;52.424;13.458;2023-08-17T05:48:36;101353.38;;;21.50;100.00
41945;BME280;63122;52.424;13.458;2023-08-17T05:50:32;101351.72;;;21.56;100.00
41945;BME280;63122;52.424;13.458;2023-08-17T05:52:27;101361.00;;;21.60;100.00
41945;BME280;63122;52.424;13.458;2023-08-17T05:54:22;101377.13;;;21.60;100.00
41945;BME280;63122;52.424;13.458;2023-08-17T05:56:17;101387.03;;;21.53;100.00
41945;BME280;63122;52.424;13.458;2023-08-17T05:58:12;101403.75;;;21.55;100.00
41945;BME280;63122;52.424;13.458;2023-08-17T06:00:07;101413.66;;;21.34;100.00
41945;BME280;63122;52.424;13.458;2023-08-17T06:02:06;101436.56;;;21.30;100.00
41945;BME280;63122;52.424;13.458;2023-08-17T06:04:03;101448.50;;;21.14;100.00
41945;BME280;63122;52.424;13.458;2023-08-17T06:05:57;101446.63;;;21.08;100.00
41945;BME280;63122;52.424;13.458;2023-08-17T06:07:52;101449.28;;;20.94;100.00
41945;BME280;63122;52.424;13.458;2023-08-17T06:09:48;101445.34;;;20.90;100.00
41945;BME280;63122;52.424;13.458;2023-08-17T06:11:40;101442.38;;;20.71;100.00
41945;BME280;63122;52.424;13.458;2023-08-17T06:13:36;101439.47;;;20.66;100.00
41945;BME280;63122;52.424;13.458;2023-08-17T06:15:31;101448.91;;;20.55;100.00
41945;BME280;63122;52.424;13.458;2023-08-17T06:17:27;101439.66;;;20.65;100.00
41945;BME280;63122;52.424;13.458;2023-08-17T06:19:23;101437.41;;;20.68;100.00
41945;BME280;63122;52.424;13.458;2023-08-17T06:21:16;101425.03;;;20.67;100.00
41945;BME280;63122;52.424;13.458;2023-08-17T06:23:11;101425.03;;;20.67;100.00
41945;BME280;63122;52.424;13.458;2023-08-17T06:25:05;101430.78;;;20.64;100.00
41945;BME280;63122;52.424;13.458;2023-08-17T06:27:01;101430.97;;;20.56;100.00
41945;BME280;63122;52.424;13.458;2023-08-17T06:28:56;101417.72;;;20.48;100.00
41945;BME280;63122;52.424;13.458;2023-08-17T06:30:55;101415.94;;;20.55;100.00
41945;BME280;63122;52.424;13.458;2023-08-17T06:32:53;101400.69;;;20.62;100.00
41945;BME280;63122;52.424;13.458;2023-08-17T06:34:48;101385.09;;;20.79;100.00
41945;BME280;63122;52.424;13.458;2023-08-17T06:36:57;101389.25;;;20.95;100.00
41945;BME280;63122;52.424;13.458;2023-08-17T06:38:52;101389.91;;;21.11;100.00
41945;BME280;63122;52.424;13.458;2023-08-17T06:40:47;101393.22;;;21.13;100.00
41945;BME280;63122;52.424;13.458;2023-08-17T06:42:40;101390.94;;;21.17;100.00
41945;BME280;63122;52.424;13.458;2023-08-17T06:44:35;101408.06;;;21.22;100.00
41945;BME280;63122;52.424;13.458;2023-08-17T06:46:30;101406.22;;;21.23;100.00
41945;BME280;63122;52.424;13.458;2023-08-17T06:48:28;101403.31;;;21.18;100.00
41945;BME280;63122;52.424;13.458;2023-08-17T06:50:23;101393.00;;;21.21;100.00
41945;BME280;63122;52.424;13.458;2023-08-17T06:52:20;101396.94;;;21.32;100.00
41945;BME280;63122;52.424;13.458;2023-08-17T06:54:13;101401.50;;;21.45;100.00
41945;BME280;63122;52.424;13.458;2023-08-17T06:56:09;101403.56;;;21.50;100.00
41945;BME280;63122;52.424;13.458;2023-08-17T06:58:04;101402.91;;;21.54;100.00
41945;BME280;63122;52.424;13.458;2023-08-17T06:59:56;101395.91;;;21.60;100.00
41945;BME280;63122;52.424;13.458;2023-08-17T07:01:52;101395.72;;;21.68;100.00
41945;BME280;63122;52.424;13.458;2023-08-17T07:03:50;101404.19;;;21.79;100.00
41945;BME280;63122;52.424;13.458;2023-08-17T07:05:45;101402.13;;;21.81;100.00
41945;BME280;63122;52.424;13.458;2023-08-17T07:07:41;101402.94;;;21.81;100.00
41945;BME280;63122;52.424;13.458;2023-08-17T07:09:34;101401.69;;;21.84;100.00
41945;BME280;63122;52.424;13.458;2023-08-17T07:11:30;101393.84;;;21.89;100.00
41945;BME280;63122;52.424;13.458;2023-08-17T07:13:25;101390.72;;;21.92;100.00
41945;BME280;63122;52.424;13.458;2023-08-17T07:15:21;101394.03;;;22.01;100.00
41945;BME280;63122;52.424;13.458;2023-08-17T07:17:16;101395.84;;;22.07;100.00
41945;BME280;63122;52.424;13.458;2023-08-17T07:19:14;101388.16;;;22.18;100.00
41945;BME280;63122;52.424;13.458;2023-08-17T07:21:09;101397.84;;;22.25;100.00
41945;BME280;63122;52.424;13.458;2023-08-17T07:23:04;101394.13;;;22.33;100.00
41945;BME280;63122;52.424;13.458;2023-08-17T07:25:00;101398.03;;;22.37;100.00
41945;BME280;63122;52.424;13.458;2023-08-17T07:26:55;101390.97;;;22.43;100.00
41945;BME280;63122;52.424;13.458;2023-08-17T07:28:50;101389.34;;;22.49;100.00
41945;BME280;63122;52.424;13.458;2023-08-17T07:30:46;101396.97;;;22.52;100.00
41945;BME280;63122;52.424;13.458;2023-08-17T07:32:41;101406.69;;;22.53;100.00
41945;BME280;63122;52.424;13.458;2023-08-17T07:34:39;101396.31;;;22.56;100.00
41945;BME280;63122;52.424;13.458;2023-08-17T07:36:34;101388.47;;;22.62;100.00
41945;BME280;63122;52.424;13.458;2023-08-17T07:38:29;101390.72;;;22.65;100.00
41945;BME280;63122;52.424;13.458;2023-08-17T07:40:25;101391.31;;;22.67;100.00
41945;BME280;63122;52.424;13.458;2023-08-17T07:42:20;101391.94;;;22.69;100.00
41945;BME280;63122;52.424;13.458;2023-08-17T07:44:18;101381.53;;;22.72;100.00
41945;BME280;63122;52.424;13.458;2023-08-17T07:46:14;101380.72;;;22.79;100.00
41945;BME280;63122;52.424;13.458;2023-08-17T07:48:07;101389.59;;;22.79;100.00
41945;BME280;63122;52.424;13.458;2023-08-17T07:50:07;101382.13;;;22.81;100.00
41945;BME280;63122;52.424;13.458;2023-08-17T07:52:02;101371.53;;;22.86;100.00
41945;BME280;63122;52.424;13.458;2023-08-17T07:53:55;101380.00;;;22.90;100.00
41945;BME280;63122;52.424;13.458;2023-08-17T07:55:51;101380.59;;;22.92;100.00
41945;BME280;63122;52.424;13.458;2023-08-17T07:57:47;101372.09;;;22.95;100.00
41945;BME280;63122;52.424;13.458;2023-08-17T07:59:43;101371.91;;;22.97;100.00
41945;BME280;63122;52.424;13.458;2023-08-17T08:01:38;101378.69;;;22.99;100.00
41945;BME280;63122;52.424;13.458;2023-08-17T08:03:34;101388.97;;;23.09;100.00
41945;BME280;63122;52.424;13.458;2023-08-17T08:05:32;101392.88;;;23.13;100.00
41945;BME280;63122;52.424;13.458;2023-08-17T08:07:27;101384.16;;;23.18;100.00
41945;BME280;63122;52.424;13.458;2023-08-17T08:09:20;101378.78;;;23.18;100.00
41945;BME280;63122;52.424;13.458;2023-08-17T08:11:16;101367.56;;;23.21;100.00
41945;BME280;63122;52.424;13.458;2023-08-17T08:13:11;101357.84;;;23.27;100.00
41945;BME280;63122;52.424;13.458;2023-08-17T08:15:07;101355.16;;;23.20;100.00
41945;BME280;63122;52.424;13.458;2023-08-17T08:17:02;101356.81;;;23.21;100.00
41945;BME280;63122;52.424;13.458;2023-08-17T08:18:58;101358.44;;;23.29;100.00
41945;BME280;63122;52.424;13.458;2023-08-17T08:20:53;101359.78;;;23.38;100.00
41945;BME280;63122;52.424;13.458;2023-08-17T08:22:48;101360.03;;;23.37;100.00
41945;BME280;63122;52.424;13.458;2023-08-17T08:24:44;101362.28;;;23.40;100.00
41945;BME280;63122;52.424;13.458;2023-08-17T08:26:39;101362.66;;;23.43;100.00
41945;BME280;63122;52.424;13.458;2023-08-17T08:28:34;101351.88;;;23.43;100.00
41945;BME280;63122;52.424;13.458;2023-08-17T08:30:30;101355.56;;;23.49;100.00
41945;BME280;63122;52.424;13.458;2023-08-17T08:32:26;101344.50;;;23.57;100.00
41945;BME280;63122;52.424;13.458;2023-08-17T08:34:22;101342.63;;;23.58;100.00
41945;BME280;63122;52.424;13.458;2023-08-17T08:36:18;101347.97;;;23.65;100.00
41945;BME280;63122;52.424;13.458;2023-08-17T08:38:14;101341.69;;;23.71;100.00
41945;BME280;63122;52.424;13.458;2023-08-17T08:40:11;101337.72;;;23.73;100.00
41945;BME280;63122;52.424;13.458;2023-08-17T08:42:07;101343.13;;;23.73;100.00
41945;BME280;63122;52.424;13.458;2023-08-17T08:44:03;101335.84;;;23.74;100.00
41945;BME280;63122;52.424;13.458;2023-08-17T08:45:59;101329.66;;;23.73;100.00
41945;BME280;63122;52.424;13.458;2023-08-17T08:47:52;101337.50;;;23.75;100.00
41945;BME280;63122;52.424;13.458;2023-08-17T08:49:55;101333.75;;;23.76;100.00
41945;BME280;63122;52.424;13.458;2023-08-17T08:51:57;101334.13;;;23.80;100.00
41945;BME280;63122;52.424;13.458;2023-08-17T08:54:00;101338.22;;;23.82;100.00
41945;BME280;63122;52.424;13.458;2023-08-17T08:55:58;101329.50;;;23.87;100.00
41945;BME280;63122;52.424;13.458;2023-08-17T08:57:54;101329.94;;;23.84;100.00
41945;BME280;63122;52.424;13.458;2023-08-17T08:59:51;101328.06;;;23.84;100.00
41945;BME280;63122;52.424;13.458;2023-08-17T09:01:49;101320.44;;;23.81;100.00
41945;BME280;63122;52.424;13.458;2023-08-17T09:03:47;101319.03;;;23.79;100.00
41945;BME280;63122;52.424;13.458;2023-08-17T09:05:44;101310.56;;;23.75;100.00
41945;BME280;63122;52.424;13.458;2023-08-17T09:07:45;101312.00;;;23.78;100.00
41945;BME280;63122;52.424;13.458;2023-08-17T09:09:44;101311.16;;;23.77;100.00
41945;BME280;63122;52.424;13.458;2023-08-17T09:11:40;101317.66;;;23.69;100.00
41945;BME280;63122;52.424;13.458;2023-08-17T09:13:36;101314.75;;;23.71;100.00
41945;BME280;63122;52.424;13.458;2023-08-17T09:15:32;101311.75;;;23.79;100.00
41945;BME280;63122;52.424;13.458;2023-08-17T09:17:27;101309.19;;;23.84;100.00
41945;BME280;63122;52.424;13.458;2023-08-17T09:19:23;101322.75;;;23.96;100.00
41945;BME280;63122;52.424;13.458;2023-08-17T09:21:22;101310.06;;;24.04;100.00
41945;BME280;63122;52.424;13.458;2023-08-17T09:23:19;101311.38;;;24.13;100.00
41945;BME280;63122;52.424;13.458;2023-08-17T09:25:22;101317.06;;;24.23;100.00
41945;BME280;63122;52.424;13.458;2023-08-17T09:27:17;101311.06;;;24.21;100.00
41945;BME280;63122;52.424;13.458;2023-08-17T09:29:17;101311.66;;;24.23;100.00
41945;BME280;63122;52.424;13.458;2023-08-17T09:31:13;101305.59;;;24.28;100.00
41945;BME280;63122;52.424;13.458;2023-08-17T09:33:08;101310.06;;;24.34;100.00
41945;BME280;63122;52.424;13.458;2023-08-17T09:35:05;101314.31;;;24.42;100.00
41945;BME280;63122;52.424;13.458;2023-08-17T09:37:03;101313.28;;;24.43;100.00
41945;BME280;63122;52.424;13.458;2023-08-17T09:38:59;101310.03;;;24.53;100.00
41945;BME280;63122;52.424;13.458;2023-08-17T09:40:57;101306.03;;;24.55;100.00
41945;BME280;63122;52.424;13.458;2023-08-17T09:42:53;101304.28;;;24.61;100.00
41945;BME280;63122;52.424;13.458;2023-08-17T09:44:49;101307.38;;;24.65;100.00
41945;BME280;63122;52.424;13.458;2023-08-17T09:46:46;101304.41;;;24.66;100.00
41945;BME280;63122;52.424;13.458;2023-08-17T09:48:43;101311.47;;;24.67;100.00
41945;BME280;63122;52.424;13.458;2023-08-17T09:50:38;101305.13;;;24.62;100.00
41945;BME280;63122;52.424;13.458;2023-08-17T09:52:38;101307.97;;;24.67;100.00